sensor_id;sensor_type;location;lat;lon;timestamp;P1;durP1;ratioP1;P2;durP2;ratioP2
49051;SDS011;34866;48.670;18.260;2022-08-19T00:01:22;18.45;;;5.50;;
49051;SDS011;34866;48.670;18.260;2022-08-19T00:03:49;14.30;;;5.50;;
49051;SDS011;34866;48.670;18.260;2022-08-19T00:06:15;9.43;;;5.55;;
49051;SDS011;34866;48.670;18.260;2022-08-19T00:08:42;9.10;;;4.82;;
49051;SDS011;34866;48.670;18.260;2022-08-19T00:11:08;10.80;;;5.55;;
49051;SDS011;34866;48.670;18.260;2022-08-19T00:13:34;8.75;;;5.40;;
49051;SDS011;34866;48.670;18.260;2022-08-19T00:16:02;10.82;;;5.20;;
49051;SDS011;34866;48.670;18.260;2022-08-19T00:18:28;8.93;;;5.32;;
49051;SDS011;34866;48.670;18.260;2022-08-19T00:20:54;15.02;;;4.80;;
49051;SDS011;34866;48.670;18.260;2022-08-19T00:23:21;8.65;;;5.35;;
49051;SDS011;34866;48.670;18.260;2022-08-19T00:25:48;11.70;;;5.43;;
49051;SDS011;34866;48.670;18.260;2022-08-19T00:28:15;13.82;;;5.15;;
49051;SDS011;34866;48.670;18.260;2022-08-19T00:30:41;9.40;;;4.65;;
49051;SDS011;34866;48.670;18.260;2022-08-19T00:33:10;12.10;;;5.63;;
49051;SDS011;34866;48.670;18.260;2022-08-19T00:35:36;11.35;;;5.40;;
49051;SDS011;34866;48.670;18.260;2022-08-19T00:38:23;8.70;;;4.97;;
49051;SDS011;34866;48.670;18.260;2022-08-19T00:40:50;11.18;;;5.00;;
49051;SDS011;34866;48.670;18.260;2022-08-19T00:43:18;10.45;;;5.63;;
49051;SDS011;34866;48.670;18.260;2022-08-19T00:45:47;8.10;;;5.35;;
49051;SDS011;34866;48.670;18.260;2022-08-19T00:48:16;10.02;;;4.90;;
49051;SDS011;34866;48.670;18.260;2022-08-19T00:50:43;8.90;;;5.70;;
49051;SDS011;34866;48.670;18.260;2022-08-19T00:53:29;10.35;;;5.43;;
49051;SDS011;34866;48.670;18.260;2022-08-19T00:56:02;9.38;;;5.32;;
49051;SDS011;34866;48.670;18.260;2022-08-19T00:58:48;14.55;;;5.15;;
49051;SDS011;34866;48.670;18.260;2022-08-19T01:01:14;9.88;;;4.88;;
49051;SDS011;34866;48.670;18.260;2022-08-19T01:03:40;9.65;;;4.78;;
49051;SDS011;34866;48.670;18.260;2022-08-19T01:06:08;10.38;;;5.78;;
49051;SDS011;34866;48.670;18.260;2022-08-19T01:08:34;16.95;;;5.72;;
49051;SDS011;34866;48.670;18.260;2022-08-19T01:11:00;9.32;;;4.95;;
49051;SDS011;34866;48.670;18.260;2022-08-19T01:13:30;9.40;;;5.25;;
49051;SDS011;34866;48.670;18.260;2022-08-19T01:16:05;10.00;;;6.07;;
49051;SDS011;34866;48.670;18.260;2022-08-19T01:18:51;14.15;;;6.03;;
49051;SDS011;34866;48.670;18.260;2022-08-19T01:21:22;8.07;;;5.13;;
49051;SDS011;34866;48.670;18.260;2022-08-19T01:24:07;9.55;;;5.25;;
49051;SDS011;34866;48.670;18.260;2022-08-19T01:26:43;8.85;;;5.60;;
49051;SDS011;34866;48.670;18.260;2022-08-19T01:29:09;16.50;;;6.28;;
49051;SDS011;34866;48.670;18.260;2022-08-19T01:31:39;9.63;;;5.63;;
49051;SDS011;34866;48.670;18.260;2022-08-19T01:34:07;9.07;;;5.15;;
49051;SDS011;34866;48.670;18.260;2022-08-19T01:39:09;12.35;;;5.55;;
49051;SDS011;34866;48.670;18.260;2022-08-19T01:41:37;11.32;;;6.13;;
49051;SDS011;34866;48.670;18.260;2022-08-19T01:44:04;8.43;;;5.20;;
49051;SDS011;34866;48.670;18.260;2022-08-19T01:46:31;9.52;;;5.28;;
49051;SDS011;34866;48.670;18.260;2022-08-19T01:48:58;11.70;;;5.93;;
49051;SDS011;34866;48.670;18.260;2022-08-19T01:51:28;14.02;;;5.70;;
49051;SDS011;34866;48.670;18.260;2022-08-19T01:53:55;9.75;;;5.50;;
49051;SDS011;34866;48.670;18.260;2022-08-19T01:56:46;9.38;;;5.88;;
49051;SDS011;34866;48.670;18.260;2022-08-19T01:59:16;8.57;;;5.18;;
49051;SDS011;34866;48.670;18.260;2022-08-19T02:01:45;7.88;;;5.35;;
49051;SDS011;34866;48.670;18.260;2022-08-19T02:04:11;10.32;;;6.22;;
49051;SDS011;34866;48.670;18.260;2022-08-19T02:06:37;10.10;;;4.90;;
49051;SDS011;34866;48.670;18.260;2022-08-19T02:09:03;9.82;;;5.10;;
49051;SDS011;34866;48.670;18.260;2022-08-19T02:11:31;9.63;;;5.47;;
49051;SDS011;34866;48.670;18.260;2022-08-19T02:14:00;13.48;;;4.88;;
49051;SDS011;34866;48.670;18.260;2022-08-19T02:16:28;9.25;;;5.30;;
49051;SDS011;34866;48.670;18.260;2022-08-19T02:19:14;9.60;;;4.93;;
49051;SDS011;34866;48.670;18.260;2022-08-19T02:21:40;9.57;;;6.38;;
49051;SDS011;34866;48.670;18.260;2022-08-19T02:24:06;15.02;;;5.85;;
49051;SDS011;34866;48.670;18.260;2022-08-19T02:26:34;7.80;;;5.22;;
49051;SDS011;34866;48.670;18.260;2022-08-19T02:29:01;11.05;;;5.88;;
49051;SDS011;34866;48.670;18.260;2022-08-19T02:31:26;15.00;;;6.07;;
49051;SDS011;34866;48.670;18.260;2022-08-19T02:33:53;10.38;;;5.55;;
49051;SDS011;34866;48.670;18.260;2022-08-19T02:36:21;13.45;;;6.40;;
49051;SDS011;34866;48.670;18.260;2022-08-19T02:38:49;11.27;;;5.90;;
49051;SDS011;34866;48.670;18.260;2022-08-19T02:41:18;8.73;;;5.32;;
49051;SDS011;34866;48.670;18.260;2022-08-19T02:43:47;10.93;;;5.10;;
49051;SDS011;34866;48.670;18.260;2022-08-19T02:46:27;8.25;;;5.10;;
49051;SDS011;34866;48.670;18.260;2022-08-19T02:48:56;10.75;;;5.45;;
49051;SDS011;34866;48.670;18.260;2022-08-19T02:51:31;13.85;;;6.22;;
49051;SDS011;34866;48.670;18.260;2022-08-19T02:53:58;17.23;;;5.60;;
49051;SDS011;34866;48.670;18.260;2022-08-19T02:56:25;9.90;;;5.57;;
49051;SDS011;34866;48.670;18.260;2022-08-19T02:58:54;11.60;;;6.18;;
49051;SDS011;34866;48.670;18.260;2022-08-19T03:01:21;12.02;;;5.47;;
49051;SDS011;34866;48.670;18.260;2022-08-19T03:03:52;10.93;;;5.53;;
49051;SDS011;34866;48.670;18.260;2022-08-19T03:06:18;13.23;;;5.63;;
49051;SDS011;34866;48.670;18.260;2022-08-19T03:08:45;10.40;;;6.03;;
49051;SDS011;34866;48.670;18.260;2022-08-19T03:11:14;10.55;;;5.32;;
49051;SDS011;34866;48.670;18.260;2022-08-19T03:13:47;16.00;;;5.55;;
49051;SDS011;34866;48.670;18.260;2022-08-19T03:16:19;18.90;;;6.13;;
49051;SDS011;34866;48.670;18.260;2022-08-19T03:18:49;10.88;;;5.78;;
49051;SDS011;34866;48.670;18.260;2022-08-19T03:21:22;11.20;;;6.25;;
49051;SDS011;34866;48.670;18.260;2022-08-19T03:23:56;16.75;;;6.90;;
49051;SDS011;34866;48.670;18.260;2022-08-19T03:26:23;14.55;;;6.18;;
49051;SDS011;34866;48.670;18.260;2022-08-19T03:28:49;18.35;;;6.57;;
49051;SDS011;34866;48.670;18.260;2022-08-19T03:31:17;12.52;;;5.90;;
49051;SDS011;34866;48.670;18.260;2022-08-19T03:33:45;13.27;;;5.82;;
49051;SDS011;34866;48.670;18.260;2022-08-19T03:36:12;14.90;;;7.00;;
49051;SDS011;34866;48.670;18.260;2022-08-19T03:38:41;13.90;;;6.80;;
49051;SDS011;34866;48.670;18.260;2022-08-19T03:41:10;13.13;;;6.25;;
49051;SDS011;34866;48.670;18.260;2022-08-19T03:43:40;15.68;;;6.30;;
49051;SDS011;34866;48.670;18.260;2022-08-19T03:46:07;17.65;;;6.57;;
49051;SDS011;34866;48.670;18.260;2022-08-19T03:48:38;16.85;;;6.82;;
49051;SDS011;34866;48.670;18.260;2022-08-19T03:51:06;10.88;;;6.35;;
49051;SDS011;34866;48.670;18.260;2022-08-19T03:53:33;22.13;;;6.28;;
49051;SDS011;34866;48.670;18.260;2022-08-19T03:56:00;9.80;;;5.82;;
49051;SDS011;34866;48.670;18.260;2022-08-19T03:58:29;10.65;;;6.18;;
49051;SDS011;34866;48.670;18.260;2022-08-19T04:00:56;10.57;;;6.20;;
49051;SDS011;34866;48.670;18.260;2022-08-19T04:03:22;13.38;;;6.28;;
49051;SDS011;34866;48.670;18.260;2022-08-19T04:05:52;17.20;;;6.50;;
49051;SDS011;34866;48.670;18.260;2022-08-19T04:08:24;16.33;;;6.70;;
49051;SDS011;34866;48.670;18.260;2022-08-19T04:10:50;13.48;;;6.70;;
49051;SDS011;34866;48.670;18.260;2022-08-19T04:13:20;11.30;;;6.30;;
49051;SDS011;34866;48.670;18.260;2022-08-19T04:15:46;11.95;;;6.03;;
49051;SDS011;34866;48.670;18.260;2022-08-19T04:18:16;11.85;;;6.65;;
49051;SDS011;34866;48.670;18.260;2022-08-19T04:20:44;21.25;;;7.70;;
49051;SDS011;34866;48.670;18.260;2022-08-19T04:23:11;13.20;;;5.72;;
49051;SDS011;34866;48.670;18.260;2022-08-19T04:25:39;13.52;;;7.65;;
49051;SDS011;34866;48.670;18.260;2022-08-19T04:28:08;15.00;;;7.07;;
49051;SDS011;34866;48.670;18.260;2022-08-19T04:30:39;13.98;;;7.30;;
49051;SDS011;34866;48.670;18.260;2022-08-19T04:33:07;11.25;;;7.00;;
49051;SDS011;34866;48.670;18.260;2022-08-19T04:35:35;14.98;;;6.05;;
49051;SDS011;34866;48.670;18.260;2022-08-19T04:38:03;9.38;;;6.22;;
49051;SDS011;34866;48.670;18.260;2022-08-19T04:40:32;14.02;;;6.50;;
49051;SDS011;34866;48.670;18.260;2022-08-19T04:43:18;11.48;;;6.13;;
49051;SDS011;34866;48.670;18.260;2022-08-19T04:45:45;13.57;;;5.97;;
49051;SDS011;34866;48.670;18.260;2022-08-19T04:48:11;9.77;;;6.72;;
49051;SDS011;34866;48.670;18.260;2022-08-19T04:50:42;11.20;;;5.97;;
49051;SDS011;34866;48.670;18.260;2022-08-19T04:53:09;11.35;;;6.10;;
49051;SDS011;34866;48.670;18.260;2022-08-19T04:55:38;18.38;;;6.47;;
49051;SDS011;34866;48.670;18.260;2022-08-19T04:58:05;13.70;;;6.78;;
49051;SDS011;34866;48.670;18.260;2022-08-19T05:00:32;10.75;;;6.25;;
49051;SDS011;34866;48.670;18.260;2022-08-19T05:02:58;11.77;;;6.18;;
49051;SDS011;34866;48.670;18.260;2022-08-19T05:05:25;9.77;;;5.70;;
49051;SDS011;34866;48.670;18.260;2022-08-19T05:07:51;14.93;;;7.03;;
49051;SDS011;34866;48.670;18.260;2022-08-19T05:10:17;14.75;;;6.82;;
49051;SDS011;34866;48.670;18.260;2022-08-19T05:12:46;10.68;;;5.85;;
49051;SDS011;34866;48.670;18.260;2022-08-19T05:15:12;12.63;;;7.10;;
49051;SDS011;34866;48.670;18.260;2022-08-19T05:17:38;16.27;;;5.65;;
49051;SDS011;34866;48.670;18.260;2022-08-19T05:20:33;11.20;;;5.70;;
49051;SDS011;34866;48.670;18.260;2022-08-19T05:23:25;15.38;;;6.55;;
49051;SDS011;34866;48.670;18.260;2022-08-19T05:25:52;10.18;;;5.50;;
49051;SDS011;34866;48.670;18.260;2022-08-19T05:28:19;12.02;;;5.75;;
49051;SDS011;34866;48.670;18.260;2022-08-19T05:30:48;11.80;;;6.65;;
49051;SDS011;34866;48.670;18.260;2022-08-19T05:33:17;15.80;;;7.05;;
49051;SDS011;34866;48.670;18.260;2022-08-19T05:35:43;14.20;;;6.20;;
49051;SDS011;34866;48.670;18.260;2022-08-19T05:38:12;13.75;;;6.53;;
49051;SDS011;34866;48.670;18.260;2022-08-19T05:40:39;10.52;;;5.82;;
49051;SDS011;34866;48.670;18.260;2022-08-19T05:43:06;13.05;;;6.32;;
49051;SDS011;34866;48.670;18.260;2022-08-19T05:45:32;10.68;;;6.38;;
49051;SDS011;34866;48.670;18.260;2022-08-19T05:48:07;10.45;;;5.97;;
49051;SDS011;34866;48.670;18.260;2022-08-19T05:50:43;12.93;;;6.28;;
49051;SDS011;34866;48.670;18.260;2022-08-19T05:53:10;11.02;;;6.53;;
49051;SDS011;34866;48.670;18.260;2022-08-19T05:55:40;12.60;;;6.45;;
49051;SDS011;34866;48.670;18.260;2022-08-19T05:58:07;9.73;;;5.78;;
49051;SDS011;34866;48.670;18.260;2022-08-19T06:00:34;12.57;;;6.10;;
49051;SDS011;34866;48.670;18.260;2022-08-19T06:03:02;9.40;;;5.40;;
49051;SDS011;34866;48.670;18.260;2022-08-19T06:05:30;12.23;;;6.07;;
49051;SDS011;34866;48.670;18.260;2022-08-19T06:07:56;9.90;;;5.95;;
49051;SDS011;34866;48.670;18.260;2022-08-19T06:10:24;18.13;;;6.75;;
49051;SDS011;34866;48.670;18.260;2022-08-19T06:12:51;13.35;;;6.82;;
49051;SDS011;34866;48.670;18.260;2022-08-19T06:15:17;10.57;;;5.82;;
49051;SDS011;34866;48.670;18.260;2022-08-19T06:18:06;9.43;;;6.28;;
49051;SDS011;34866;48.670;18.260;2022-08-19T06:20:31;12.30;;;6.40;;
49051;SDS011;34866;48.670;18.260;2022-08-19T06:22:58;11.00;;;6.68;;
49051;SDS011;34866;48.670;18.260;2022-08-19T06:25:24;14.70;;;6.35;;
49051;SDS011;34866;48.670;18.260;2022-08-19T06:27:59;18.88;;;6.00;;
49051;SDS011;34866;48.670;18.260;2022-08-19T06:30:28;9.90;;;5.55;;
49051;SDS011;34866;48.670;18.260;2022-08-19T06:32:55;11.82;;;6.22;;
49051;SDS011;34866;48.670;18.260;2022-08-19T06:35:23;12.82;;;6.55;;
49051;SDS011;34866;48.670;18.260;2022-08-19T06:37:48;10.95;;;5.85;;
49051;SDS011;34866;48.670;18.260;2022-08-19T06:40:15;10.80;;;6.35;;
49051;SDS011;34866;48.670;18.260;2022-08-19T06:42:41;10.27;;;5.85;;
49051;SDS011;34866;48.670;18.260;2022-08-19T06:45:08;11.60;;;5.88;;
49051;SDS011;34866;48.670;18.260;2022-08-19T06:47:36;11.95;;;5.40;;
49051;SDS011;34866;48.670;18.260;2022-08-19T06:50:02;15.07;;;5.20;;
49051;SDS011;34866;48.670;18.260;2022-08-19T06:52:48;10.27;;;5.70;;
49051;SDS011;34866;48.670;18.260;2022-08-19T06:55:14;9.57;;;5.80;;
49051;SDS011;34866;48.670;18.260;2022-08-19T06:57:42;10.32;;;6.63;;
49051;SDS011;34866;48.670;18.260;2022-08-19T07:00:11;16.38;;;6.05;;
49051;SDS011;34866;48.670;18.260;2022-08-19T07:02:42;13.88;;;6.30;;
49051;SDS011;34866;48.670;18.260;2022-08-19T07:05:09;13.45;;;6.43;;
49051;SDS011;34866;48.670;18.260;2022-08-19T07:07:35;11.50;;;6.47;;
49051;SDS011;34866;48.670;18.260;2022-08-19T07:10:01;8.05;;;4.97;;
49051;SDS011;34866;48.670;18.260;2022-08-19T07:12:30;7.80;;;5.32;;
49051;SDS011;34866;48.670;18.260;2022-08-19T07:14:58;7.95;;;4.88;;
49051;SDS011;34866;48.670;18.260;2022-08-19T07:17:25;6.97;;;4.78;;
49051;SDS011;34866;48.670;18.260;2022-08-19T07:20:02;10.63;;;5.32;;
49051;SDS011;34866;48.670;18.260;2022-08-19T07:22:47;8.93;;;4.75;;
49051;SDS011;34866;48.670;18.260;2022-08-19T07:25:35;9.80;;;4.90;;
49051;SDS011;34866;48.670;18.260;2022-08-19T07:28:23;11.48;;;4.85;;
49051;SDS011;34866;48.670;18.260;2022-08-19T07:31:05;7.20;;;4.07;;
49051;SDS011;34866;48.670;18.260;2022-08-19T07:33:33;13.38;;;4.60;;
49051;SDS011;34866;48.670;18.260;2022-08-19T07:36:11;11.80;;;5.05;;
49051;SDS011;34866;48.670;18.260;2022-08-19T07:38:54;6.85;;;4.40;;
49051;SDS011;34866;48.670;18.260;2022-08-19T07:41:45;8.15;;;4.80;;
49051;SDS011;34866;48.670;18.260;2022-08-19T07:44:12;18.02;;;4.85;;
49051;SDS011;34866;48.670;18.260;2022-08-19T07:49:57;16.98;;;4.70;;
49051;SDS011;34866;48.670;18.260;2022-08-19T07:52:36;10.25;;;4.68;;
49051;SDS011;34866;48.670;18.260;2022-08-19T07:55:26;9.35;;;4.25;;
49051;SDS011;34866;48.670;18.260;2022-08-19T07:57:55;7.65;;;4.65;;
49051;SDS011;34866;48.670;18.260;2022-08-19T08:00:25;11.10;;;5.18;;
49051;SDS011;34866;48.670;18.260;2022-08-19T08:02:54;11.95;;;4.72;;
49051;SDS011;34866;48.670;18.260;2022-08-19T08:05:20;9.52;;;4.72;;
49051;SDS011;34866;48.670;18.260;2022-08-19T08:08:07;10.05;;;4.32;;
49051;SDS011;34866;48.670;18.260;2022-08-19T08:10:51;13.30;;;4.30;;
49051;SDS011;34866;48.670;18.260;2022-08-19T08:13:17;8.82;;;4.57;;
49051;SDS011;34866;48.670;18.260;2022-08-19T08:16:06;8.65;;;4.72;;
49051;SDS011;34866;48.670;18.260;2022-08-19T08:18:34;11.38;;;5.13;;
49051;SDS011;34866;48.670;18.260;2022-08-19T08:21:21;7.57;;;4.28;;
49051;SDS011;34866;48.670;18.260;2022-08-19T08:23:47;9.48;;;4.25;;
49051;SDS011;34866;48.670;18.260;2022-08-19T08:26:14;12.68;;;4.60;;
49051;SDS011;34866;48.670;18.260;2022-08-19T08:28:43;5.88;;;3.88;;
49051;SDS011;34866;48.670;18.260;2022-08-19T08:31:32;7.10;;;4.47;;
49051;SDS011;34866;48.670;18.260;2022-08-19T08:34:05;7.45;;;4.15;;
49051;SDS011;34866;48.670;18.260;2022-08-19T08:37:14;8.50;;;4.13;;
49051;SDS011;34866;48.670;18.260;2022-08-19T08:39:45;9.93;;;4.60;;
49051;SDS011;34866;48.670;18.260;2022-08-19T08:42:36;11.75;;;4.70;;
49051;SDS011;34866;48.670;18.260;2022-08-19T08:45:46;8.18;;;5.00;;
49051;SDS011;34866;48.670;18.260;2022-08-19T08:51:24;8.05;;;4.35;;
49051;SDS011;34866;48.670;18.260;2022-08-19T08:53:58;7.22;;;4.32;;
49051;SDS011;34866;48.670;18.260;2022-08-19T08:56:26;9.98;;;4.88;;
49051;SDS011;34866;48.670;18.260;2022-08-19T09:01:57;7.95;;;4.28;;
49051;SDS011;34866;48.670;18.260;2022-08-19T09:04:43;8.38;;;4.93;;
49051;SDS011;34866;48.670;18.260;2022-08-19T09:07:33;9.55;;;4.47;;
49051;SDS011;34866;48.670;18.260;2022-08-19T09:10:16;6.68;;;3.90;;
49051;SDS011;34866;48.670;18.260;2022-08-19T09:16:13;8.00;;;4.40;;
49051;SDS011;34866;48.670;18.260;2022-08-19T09:18:50;7.82;;;4.55;;
49051;SDS011;34866;48.670;18.260;2022-08-19T09:21:20;6.57;;;4.00;;
49051;SDS011;34866;48.670;18.260;2022-08-19T09:23:50;9.65;;;4.30;;
49051;SDS011;34866;48.670;18.260;2022-08-19T09:26:19;7.90;;;4.10;;
49051;SDS011;34866;48.670;18.260;2022-08-19T09:28:52;7.00;;;4.68;;
49051;SDS011;34866;48.670;18.260;2022-08-19T09:31:20;6.87;;;4.37;;
49051;SDS011;34866;48.670;18.260;2022-08-19T09:34:14;8.95;;;3.58;;
49051;SDS011;34866;48.670;18.260;2022-08-19T09:36:41;9.60;;;4.43;;
49051;SDS011;34866;48.670;18.260;2022-08-19T09:39:16;11.48;;;4.60;;
49051;SDS011;34866;48.670;18.260;2022-08-19T09:41:42;11.45;;;4.32;;
49051;SDS011;34866;48.670;18.260;2022-08-19T09:44:10;9.13;;;4.07;;
49051;SDS011;34866;48.670;18.260;2022-08-19T09:46:41;7.53;;;4.07;;
49051;SDS011;34866;48.670;18.260;2022-08-19T09:49:07;5.75;;;3.60;;
49051;SDS011;34866;48.670;18.260;2022-08-19T09:51:55;9.95;;;3.38;;
49051;SDS011;34866;48.670;18.260;2022-08-19T09:54:21;6.70;;;3.65;;
49051;SDS011;34866;48.670;18.260;2022-08-19T09:56:48;13.40;;;4.18;;
49051;SDS011;34866;48.670;18.260;2022-08-19T09:59:14;6.60;;;3.20;;
49051;SDS011;34866;48.670;18.260;2022-08-19T10:01:41;7.60;;;4.03;;
49051;SDS011;34866;48.670;18.260;2022-08-19T10:04:07;8.50;;;4.07;;
49051;SDS011;34866;48.670;18.260;2022-08-19T10:06:33;11.45;;;3.80;;
49051;SDS011;34866;48.670;18.260;2022-08-19T10:09:08;9.23;;;4.22;;
49051;SDS011;34866;48.670;18.260;2022-08-19T10:11:35;7.03;;;3.53;;
49051;SDS011;34866;48.670;18.260;2022-08-19T10:14:04;10.07;;;4.22;;
49051;SDS011;34866;48.670;18.260;2022-08-19T10:16:31;7.25;;;4.07;;
49051;SDS011;34866;48.670;18.260;2022-08-19T10:18:57;6.20;;;3.75;;
49051;SDS011;34866;48.670;18.260;2022-08-19T10:21:24;8.20;;;3.97;;
49051;SDS011;34866;48.670;18.260;2022-08-19T10:23:54;9.07;;;4.03;;
49051;SDS011;34866;48.670;18.260;2022-08-19T10:26:26;8.00;;;4.40;;
49051;SDS011;34866;48.670;18.260;2022-08-19T10:28:55;9.35;;;4.20;;
49051;SDS011;34866;48.670;18.260;2022-08-19T10:31:24;8.68;;;3.97;;
49051;SDS011;34866;48.670;18.260;2022-08-19T10:33:57;7.10;;;3.90;;
49051;SDS011;34866;48.670;18.260;2022-08-19T10:36:45;9.85;;;3.28;;
49051;SDS011;34866;48.670;18.260;2022-08-19T10:39:11;6.82;;;3.35;;
49051;SDS011;34866;48.670;18.260;2022-08-19T10:41:38;17.20;;;3.63;;
49051;SDS011;34866;48.670;18.260;2022-08-19T10:47:24;9.68;;;3.40;;
49051;SDS011;34866;48.670;18.260;2022-08-19T10:49:56;5.93;;;3.78;;
49051;SDS011;34866;48.670;18.260;2022-08-19T10:52:42;6.25;;;3.78;;
49051;SDS011;34866;48.670;18.260;2022-08-19T10:55:15;7.53;;;3.88;;
49051;SDS011;34866;48.670;18.260;2022-08-19T10:58:00;5.75;;;3.25;;
49051;SDS011;34866;48.670;18.260;2022-08-19T11:00:50;6.10;;;3.53;;
49051;SDS011;34866;48.670;18.260;2022-08-19T11:03:37;7.45;;;3.55;;
49051;SDS011;34866;48.670;18.260;2022-08-19T11:06:11;6.43;;;3.53;;
49051;SDS011;34866;48.670;18.260;2022-08-19T11:08:39;9.10;;;3.50;;
49051;SDS011;34866;48.670;18.260;2022-08-19T11:11:14;9.63;;;3.60;;
49051;SDS011;34866;48.670;18.260;2022-08-19T11:13:47;10.15;;;3.50;;
49051;SDS011;34866;48.670;18.260;2022-08-19T11:19:56;8.10;;;3.22;;
49051;SDS011;34866;48.670;18.260;2022-08-19T11:22:22;5.45;;;3.22;;
49051;SDS011;34866;48.670;18.260;2022-08-19T11:24:48;7.32;;;4.00;;
49051;SDS011;34866;48.670;18.260;2022-08-19T11:27:37;8.70;;;3.53;;
49051;SDS011;34866;48.670;18.260;2022-08-19T11:30:05;9.65;;;3.30;;
49051;SDS011;34866;48.670;18.260;2022-08-19T11:32:33;7.90;;;3.25;;
49051;SDS011;34866;48.670;18.260;2022-08-19T11:34:59;5.80;;;3.33;;
49051;SDS011;34866;48.670;18.260;2022-08-19T11:37:30;5.78;;;3.47;;
49051;SDS011;34866;48.670;18.260;2022-08-19T11:39:56;17.35;;;3.80;;
49051;SDS011;34866;48.670;18.260;2022-08-19T11:42:23;5.88;;;3.30;;
49051;SDS011;34866;48.670;18.260;2022-08-19T11:45:08;9.55;;;3.33;;
49051;SDS011;34866;48.670;18.260;2022-08-19T11:47:34;6.82;;;2.83;;
49051;SDS011;34866;48.670;18.260;2022-08-19T11:49:59;6.80;;;3.30;;
49051;SDS011;34866;48.670;18.260;2022-08-19T11:52:25;6.43;;;3.50;;
49051;SDS011;34866;48.670;18.260;2022-08-19T11:54:51;9.55;;;3.13;;
49051;SDS011;34866;48.670;18.260;2022-08-19T11:57:17;8.43;;;3.58;;
49051;SDS011;34866;48.670;18.260;2022-08-19T11:59:48;8.77;;;3.33;;
49051;SDS011;34866;48.670;18.260;2022-08-19T12:02:20;8.13;;;3.08;;
49051;SDS011;34866;48.670;18.260;2022-08-19T12:04:49;11.70;;;3.03;;
49051;SDS011;34866;48.670;18.260;2022-08-19T12:07:17;11.45;;;3.10;;
49051;SDS011;34866;48.670;18.260;2022-08-19T12:09:43;9.45;;;2.65;;
49051;SDS011;34866;48.670;18.260;2022-08-19T12:12:09;8.60;;;2.70;;
49051;SDS011;34866;48.670;18.260;2022-08-19T12:14:35;8.52;;;3.13;;
49051;SDS011;34866;48.670;18.260;2022-08-19T12:17:02;10.30;;;3.67;;
49051;SDS011;34866;48.670;18.260;2022-08-19T12:19:30;7.00;;;2.63;;
49051;SDS011;34866;48.670;18.260;2022-08-19T12:22:01;14.35;;;3.15;;
49051;SDS011;34866;48.670;18.260;2022-08-19T12:24:29;18.92;;;4.07;;
49051;SDS011;34866;48.670;18.260;2022-08-19T12:26:58;9.60;;;3.00;;
49051;SDS011;34866;48.670;18.260;2022-08-19T12:29:26;4.85;;;2.70;;
49051;SDS011;34866;48.670;18.260;2022-08-19T12:31:55;9.55;;;3.45;;
49051;SDS011;34866;48.670;18.260;2022-08-19T12:34:26;8.43;;;2.90;;
49051;SDS011;34866;48.670;18.260;2022-08-19T12:36:55;8.95;;;4.03;;
49051;SDS011;34866;48.670;18.260;2022-08-19T12:39:22;11.07;;;2.83;;
49051;SDS011;34866;48.670;18.260;2022-08-19T12:41:48;7.47;;;3.33;;
49051;SDS011;34866;48.670;18.260;2022-08-19T12:44:14;18.13;;;3.63;;
49051;SDS011;34866;48.670;18.260;2022-08-19T12:46:40;8.30;;;3.58;;
49051;SDS011;34866;48.670;18.260;2022-08-19T12:49:07;5.40;;;2.95;;
49051;SDS011;34866;48.670;18.260;2022-08-19T12:51:36;8.98;;;3.08;;
49051;SDS011;34866;48.670;18.260;2022-08-19T12:54:04;7.88;;;3.35;;
49051;SDS011;34866;48.670;18.260;2022-08-19T12:56:31;10.45;;;3.00;;
49051;SDS011;34866;48.670;18.260;2022-08-19T12:59:00;8.23;;;3.47;;
49051;SDS011;34866;48.670;18.260;2022-08-19T13:01:27;8.60;;;3.30;;
49051;SDS011;34866;48.670;18.260;2022-08-19T13:03:57;17.48;;;3.97;;
49051;SDS011;34866;48.670;18.260;2022-08-19T13:06:24;9.65;;;3.40;;
49051;SDS011;34866;48.670;18.260;2022-08-19T13:08:50;7.78;;;3.13;;
49051;SDS011;34866;48.670;18.260;2022-08-19T13:11:17;9.07;;;3.17;;
49051;SDS011;34866;48.670;18.260;2022-08-19T13:13:45;9.13;;;3.05;;
49051;SDS011;34866;48.670;18.260;2022-08-19T13:16:14;7.78;;;2.72;;
49051;SDS011;34866;48.670;18.260;2022-08-19T13:18:41;7.55;;;3.05;;
49051;SDS011;34866;48.670;18.260;2022-08-19T13:21:09;11.98;;;3.30;;
49051;SDS011;34866;48.670;18.260;2022-08-19T13:23:38;6.05;;;2.97;;
49051;SDS011;34866;48.670;18.260;2022-08-19T13:26:12;9.40;;;3.60;;
49051;SDS011;34866;48.670;18.260;2022-08-19T13:28:39;8.02;;;3.58;;
49051;SDS011;34866;48.670;18.260;2022-08-19T13:31:26;10.18;;;3.28;;
49051;SDS011;34866;48.670;18.260;2022-08-19T13:34:12;7.75;;;3.17;;
49051;SDS011;34866;48.670;18.260;2022-08-19T13:36:39;7.28;;;2.83;;
49051;SDS011;34866;48.670;18.260;2022-08-19T13:39:06;9.57;;;3.35;;
49051;SDS011;34866;48.670;18.260;2022-08-19T13:41:34;8.98;;;2.88;;
49051;SDS011;34866;48.670;18.260;2022-08-19T13:44:01;6.28;;;3.55;;
49051;SDS011;34866;48.670;18.260;2022-08-19T13:46:27;12.10;;;3.53;;
49051;SDS011;34866;48.670;18.260;2022-08-19T13:48:55;8.90;;;3.08;;
49051;SDS011;34866;48.670;18.260;2022-08-19T13:51:25;9.27;;;3.38;;
49051;SDS011;34866;48.670;18.260;2022-08-19T13:53:53;11.88;;;2.92;;
49051;SDS011;34866;48.670;18.260;2022-08-19T13:56:25;12.80;;;4.07;;
49051;SDS011;34866;48.670;18.260;2022-08-19T13:58:53;7.78;;;3.53;;
49051;SDS011;34866;48.670;18.260;2022-08-19T14:01:21;12.07;;;3.53;;
49051;SDS011;34866;48.670;18.260;2022-08-19T14:04:02;8.73;;;3.33;;
49051;SDS011;34866;48.670;18.260;2022-08-19T14:06:29;13.68;;;3.38;;
49051;SDS011;34866;48.670;18.260;2022-08-19T14:08:56;35.28;;;5.35;;
49051;SDS011;34866;48.670;18.260;2022-08-19T14:11:25;35.75;;;4.90;;
49051;SDS011;34866;48.670;18.260;2022-08-19T14:13:52;12.52;;;4.35;;
49051;SDS011;34866;48.670;18.260;2022-08-19T14:16:18;14.55;;;4.90;;
49051;SDS011;34866;48.670;18.260;2022-08-19T14:18:43;17.35;;;4.40;;
49051;SDS011;34866;48.670;18.260;2022-08-19T21:13:15;14.43;;;4.17;;
49051;SDS011;34866;48.670;18.260;2022-08-19T21:15:50;10.70;;;3.67;;
49051;SDS011;34866;48.670;18.260;2022-08-19T21:18:39;14.07;;;3.53;;
49051;SDS011;34866;48.670;18.260;2022-08-19T21:21:29;11.43;;;4.38;;
49051;SDS011;34866;48.670;18.260;2022-08-19T21:23:59;14.60;;;4.68;;
49051;SDS011;34866;48.670;18.260;2022-08-19T21:26:49;10.18;;;3.47;;
49051;SDS011;34866;48.670;18.260;2022-08-19T21:29:16;12.23;;;3.35;;
49051;SDS011;34866;48.670;18.260;2022-08-19T21:34:26;8.85;;;3.97;;
49051;SDS011;34866;48.670;18.260;2022-08-19T21:36:53;7.65;;;2.95;;
49051;SDS011;34866;48.670;18.260;2022-08-19T21:39:22;14.05;;;4.35;;
49051;SDS011;34866;48.670;18.260;2022-08-19T21:42:32;14.65;;;4.13;;
49051;SDS011;34866;48.670;18.260;2022-08-19T21:45:28;14.25;;;4.68;;
49051;SDS011;34866;48.670;18.260;2022-08-19T21:48:16;17.98;;;4.35;;
49051;SDS011;34866;48.670;18.260;2022-08-19T21:51:06;11.85;;;4.45;;
49051;SDS011;34866;48.670;18.260;2022-08-19T21:54:12;12.48;;;4.03;;
49051;SDS011;34866;48.670;18.260;2022-08-19T21:57:03;11.95;;;3.88;;
49051;SDS011;34866;48.670;18.260;2022-08-19T22:00:17;13.00;;;3.67;;
49051;SDS011;34866;48.670;18.260;2022-08-19T22:03:46;12.07;;;3.53;;
49051;SDS011;34866;48.670;18.260;2022-08-19T22:06:56;25.80;;;5.45;;
49051;SDS011;34866;48.670;18.260;2022-08-19T22:10:03;10.15;;;3.75;;
49051;SDS011;34866;48.670;18.260;2022-08-19T22:12:31;19.13;;;3.97;;